sensor_id;sensor_type;location;lat;lon;timestamp;pressure;altitude;pressure_sealevel;temperature;humidity
76460;BME280;65299;46.084;18.762;2023-12-20T00:02:32;100753.69;;;-0.09;84.87
76460;BME280;65299;46.084;18.762;2023-12-20T00:05:33;100747.66;;;-0.09;85.08
76460;BME280;65299;46.084;18.762;2023-12-20T00:08:34;100743.78;;;0.02;84.76
76460;BME280;65299;46.084;18.762;2023-12-20T00:11:35;100744.13;;;-0.02;84.71
76460;BME280;65299;46.084;18.762;2023-12-20T00:14:35;100733.72;;;-0.02;84.64
76460;BME280;65299;46.084;18.762;2023-12-20T00:17:36;100732.31;;;-0.19;85.61
76460;BME280;65299;46.084;18.762;2023-12-20T00:20:36;100731.38;;;0.04;85.35
76460;BME280;65299;46.084;18.762;2023-12-20T00:23:36;100729.50;;;0.19;84.56
76460;BME280;65299;46.084;18.762;2023-12-20T00:26:37;100729.78;;;0.24;84.20
76460;BME280;65299;46.084;18.762;2023-12-20T00:29:37;100726.94;;;0.40;84.35
76460;BME280;65299;46.084;18.762;2023-12-20T00:32:38;100716.41;;;0.33;84.17
76460;BME280;65299;46.084;18.762;2023-12-20T00:35:38;100723.63;;;0.31;84.13
76460;BME280;65299;46.084;18.762;2023-12-20T00:38:39;100710.03;;;0.36;84.17
76460;BME280;65299;46.084;18.762;2023-12-20T00:41:39;100711.19;;;0.33;83.63
76460;BME280;65299;46.084;18.762;2023-12-20T00:44:39;100701.59;;;0.55;83.49
76460;BME280;65299;46.084;18.762;2023-12-20T00:47:40;100696.22;;;0.21;83.52
76460;BME280;65299;46.084;18.762;2023-12-20T00:50:40;100692.88;;;0.48;83.08
76460;BME280;65299;46.084;18.762;2023-12-20T00:53:41;100684.84;;;0.49;83.33
76460;BME280;65299;46.084;18.762;2023-12-20T00:56:41;100685.50;;;0.30;83.80
76460;BME280;65299;46.084;18.762;2023-12-20T00:59:42;100689.03;;;0.44;83.18
76460;BME280;65299;46.084;18.762;2023-12-20T01:02:42;100677.47;;;0.53;82.64
76460;BME280;65299;46.084;18.762;2023-12-20T01:05:42;100674.72;;;0.19;83.45
76460;BME280;65299;46.084;18.762;2023-12-20T01:08:43;100668.50;;;0.41;83.83
76460;BME280;65299;46.084;18.762;2023-12-20T01:11:43;100666.94;;;0.25;83.57
76460;BME280;65299;46.084;18.762;2023-12-20T01:14:44;100659.69;;;0.42;83.48
76460;BME280;65299;46.084;18.762;2023-12-20T01:17:44;100653.16;;;0.52;82.84
76460;BME280;65299;46.084;18.762;2023-12-20T01:20:44;100651.84;;;0.69;83.08
76460;BME280;65299;46.084;18.762;2023-12-20T01:23:45;100652.09;;;0.74;82.06
76460;BME280;65299;46.084;18.762;2023-12-20T01:26:45;100649.91;;;0.50;82.19
76460;BME280;65299;46.084;18.762;2023-12-20T01:29:45;100648.78;;;0.59;82.28
76460;BME280;65299;46.084;18.762;2023-12-20T01:32:46;100640.03;;;0.46;82.93
76460;BME280;65299;46.084;18.762;2023-12-20T01:35:46;100639.00;;;0.40;83.26
76460;BME280;65299;46.084;18.762;2023-12-20T01:38:47;100623.75;;;0.44;83.53
76460;BME280;65299;46.084;18.762;2023-12-20T01:41:47;100620.94;;;0.45;83.08
76460;BME280;65299;46.084;18.762;2023-12-20T01:44:48;100612.97;;;0.53;83.18
76460;BME280;65299;46.084;18.762;2023-12-20T01:47:48;100609.78;;;0.58;83.20
76460;BME280;65299;46.084;18.762;2023-12-20T01:50:48;100616.13;;;0.42;83.41
76460;BME280;65299;46.084;18.762;2023-12-20T01:53:49;100607.22;;;0.37;84.45
76460;BME280;65299;46.084;18.762;2023-12-20T01:56:50;100597.28;;;0.47;84.49
76460;BME280;65299;46.084;18.762;2023-12-20T01:59:51;100594.41;;;0.42;83.95
76460;BME280;65299;46.084;18.762;2023-12-20T02:02:53;100586.91;;;0.60;84.33
76460;BME280;65299;46.084;18.762;2023-12-20T02:05:53;100572.91;;;0.67;83.42
76460;BME280;65299;46.084;18.762;2023-12-20T02:08:54;100575.63;;;0.53;84.03
76460;BME280;65299;46.084;18.762;2023-12-20T02:11:55;100567.72;;;0.74;83.25
76460;BME280;65299;46.084;18.762;2023-12-20T02:14:56;100563.25;;;0.68;83.46
76460;BME280;65299;46.084;18.762;2023-12-20T02:17:56;100557.72;;;0.84;83.48
76460;BME280;65299;46.084;18.762;2023-12-20T02:20:57;100550.88;;;0.76;83.63
76460;BME280;65299;46.084;18.762;2023-12-20T02:23:57;100554.34;;;0.90;83.39
76460;BME280;65299;46.084;18.762;2023-12-20T02:26:58;100549.63;;;0.72;84.13
76460;BME280;65299;46.084;18.762;2023-12-20T02:29:58;100548.28;;;0.83;83.71
76460;BME280;65299;46.084;18.762;2023-12-20T02:33:03;100538.56;;;1.11;83.06
76460;BME280;65299;46.084;18.762;2023-12-20T02:36:07;100537.03;;;0.82;83.72
76460;BME280;65299;46.084;18.762;2023-12-20T02:39:07;100527.31;;;0.70;84.30
76460;BME280;65299;46.084;18.762;2023-12-20T02:42:08;100525.97;;;0.80;83.98
76460;BME280;65299;46.084;18.762;2023-12-20T02:45:08;100525.59;;;0.90;84.00
76460;BME280;65299;46.084;18.762;2023-12-20T02:48:09;100519.44;;;0.98;83.34
76460;BME280;65299;46.084;18.762;2023-12-20T02:51:09;100521.03;;;0.58;84.80
76460;BME280;65299;46.084;18.762;2023-12-20T02:54:10;100517.53;;;0.44;86.07
76460;BME280;65299;46.084;18.762;2023-12-20T02:57:10;100509.41;;;0.60;85.36
76460;BME280;65299;46.084;18.762;2023-12-20T03:00:11;100511.38;;;0.58;85.03
76460;BME280;65299;46.084;18.762;2023-12-20T03:03:11;100515.13;;;0.49;85.36
76460;BME280;65299;46.084;18.762;2023-12-20T03:06:16;100513.84;;;0.66;85.17
76460;BME280;65299;46.084;18.762;2023-12-20T03:09:17;100498.72;;;0.55;84.76
76460;BME280;65299;46.084;18.762;2023-12-20T03:12:17;100496.59;;;0.38;85.44
76460;BME280;65299;46.084;18.762;2023-12-20T03:15:18;100491.22;;;0.46;85.45
76460;BME280;65299;46.084;18.762;2023-12-20T03:18:18;100493.03;;;0.45;85.50
76460;BME280;65299;46.084;18.762;2023-12-20T03:21:18;100488.47;;;0.54;85.65
76460;BME280;65299;46.084;18.762;2023-12-20T03:24:19;100487.22;;;0.50;85.64
76460;BME280;65299;46.084;18.762;2023-12-20T03:27:19;100484.75;;;0.76;84.89
76460;BME280;65299;46.084;18.762;2023-12-20T03:30:20;100480.53;;;0.75;85.04
76460;BME280;65299;46.084;18.762;2023-12-20T03:33:20;100494.59;;;0.74;84.34
76460;BME280;65299;46.084;18.762;2023-12-20T03:36:20;100481.22;;;0.97;84.28
76460;BME280;65299;46.084;18.762;2023-12-20T03:39:21;100476.19;;;0.95;84.07
76460;BME280;65299;46.084;18.762;2023-12-20T03:42:21;100480.06;;;1.06;83.72
76460;BME280;65299;46.084;18.762;2023-12-20T03:45:22;100473.44;;;1.10;83.67
76460;BME280;65299;46.084;18.762;2023-12-20T03:48:22;100458.16;;;1.13;83.55
76460;BME280;65299;46.084;18.762;2023-12-20T03:51:22;100450.19;;;1.34;82.82
76460;BME280;65299;46.084;18.762;2023-12-20T03:54:24;100448.75;;;1.25;83.07
76460;BME280;65299;46.084;18.762;2023-12-20T03:57:24;100451.94;;;1.21;82.94
76460;BME280;65299;46.084;18.762;2023-12-20T04:00:24;100445.31;;;1.25;82.77
76460;BME280;65299;46.084;18.762;2023-12-20T04:03:25;100443.94;;;1.35;82.67
76460;BME280;65299;46.084;18.762;2023-12-20T04:06:25;100446.31;;;0.57;84.94
76460;BME280;65299;46.084;18.762;2023-12-20T04:09:25;100445.53;;;0.69;84.26
76460;BME280;65299;46.084;18.762;2023-12-20T04:12:27;100446.69;;;0.54;85.20
76460;BME280;65299;46.084;18.762;2023-12-20T04:15:28;100444.03;;;0.95;84.04
76460;BME280;65299;46.084;18.762;2023-12-20T04:18:28;100441.66;;;1.06;83.54
76460;BME280;65299;46.084;18.762;2023-12-20T04:21:29;100438.59;;;0.90;83.91
76460;BME280;65299;46.084;18.762;2023-12-20T04:24:29;100438.44;;;1.04;83.94
76460;BME280;65299;46.084;18.762;2023-12-20T04:27:29;100437.22;;;0.94;83.82
76460;BME280;65299;46.084;18.762;2023-12-20T04:30:30;100430.16;;;0.94;84.25
76460;BME280;65299;46.084;18.762;2023-12-20T04:33:30;100427.03;;;0.58;85.14
76460;BME280;65299;46.084;18.762;2023-12-20T04:36:31;100422.44;;;0.66;84.61
76460;BME280;65299;46.084;18.762;2023-12-20T04:39:31;100417.88;;;0.34;85.84
76460;BME280;65299;46.084;18.762;2023-12-20T04:42:31;100418.22;;;0.72;85.77
76460;BME280;65299;46.084;18.762;2023-12-20T04:45:32;100413.84;;;0.85;84.29
76460;BME280;65299;46.084;18.762;2023-12-20T04:48:32;100411.41;;;0.77;84.32
76460;BME280;65299;46.084;18.762;2023-12-20T04:51:33;100405.97;;;0.66;84.98
76460;BME280;65299;46.084;18.762;2023-12-20T04:54:34;100412.94;;;0.52;84.52
76460;BME280;65299;46.084;18.762;2023-12-20T04:57:35;100402.97;;;0.69;85.08
76460;BME280;65299;46.084;18.762;2023-12-20T05:00:35;100404.63;;;0.96;84.23
76460;BME280;65299;46.084;18.762;2023-12-20T05:03:36;100402.69;;;1.18;83.63
76460;BME280;65299;46.084;18.762;2023-12-20T05:06:36;100403.84;;;1.02;83.55
76460;BME280;65299;46.084;18.762;2023-12-20T05:09:36;100406.38;;;0.69;84.67
76460;BME280;65299;46.084;18.762;2023-12-20T05:12:37;100400.72;;;0.53;84.52
76460;BME280;65299;46.084;18.762;2023-12-20T05:15:37;100399.78;;;0.80;84.38
76460;BME280;65299;46.084;18.762;2023-12-20T05:18:38;100392.38;;;0.97;83.80
76460;BME280;65299;46.084;18.762;2023-12-20T05:21:38;100402.19;;;0.81;83.15
76460;BME280;65299;46.084;18.762;2023-12-20T05:24:39;100401.00;;;0.84;83.85
76460;BME280;65299;46.084;18.762;2023-12-20T05:27:39;100393.91;;;0.65;84.16
76460;BME280;65299;46.084;18.762;2023-12-20T05:30:40;100397.28;;;0.52;85.05
76460;BME280;65299;46.084;18.762;2023-12-20T05:33:40;100392.88;;;0.59;85.40
76460;BME280;65299;46.084;18.762;2023-12-20T05:36:41;100394.56;;;0.80;85.17
76460;BME280;65299;46.084;18.762;2023-12-20T05:39:41;100397.97;;;0.80;84.34
76460;BME280;65299;46.084;18.762;2023-12-20T05:42:42;100392.09;;;0.59;84.86
76460;BME280;65299;46.084;18.762;2023-12-20T05:45:42;100390.44;;;0.51;84.99
76460;BME280;65299;46.084;18.762;2023-12-20T05:48:42;100398.34;;;0.71;84.60
76460;BME280;65299;46.084;18.762;2023-12-20T05:51:43;100404.72;;;0.15;86.27
76460;BME280;65299;46.084;18.762;2023-12-20T05:54:43;100408.84;;;0.30;86.32
76460;BME280;65299;46.084;18.762;2023-12-20T05:57:44;100406.84;;;0.32;86.42
76460;BME280;65299;46.084;18.762;2023-12-20T06:00:44;100413.06;;;0.38;86.43
76460;BME280;65299;46.084;18.762;2023-12-20T06:03:44;100415.53;;;0.46;87.34
76460;BME280;65299;46.084;18.762;2023-12-20T06:06:46;100418.09;;;0.39;87.75
76460;BME280;65299;46.084;18.762;2023-12-20T06:09:46;100420.13;;;0.44;86.30
76460;BME280;65299;46.084;18.762;2023-12-20T06:12:47;100435.25;;;0.61;86.79
76460;BME280;65299;46.084;18.762;2023-12-20T06:15:50;100434.69;;;0.25;87.03
76460;BME280;65299;46.084;18.762;2023-12-20T06:18:51;100433.31;;;0.29;87.34
76460;BME280;65299;46.084;18.762;2023-12-20T06:21:51;100436.00;;;0.08;88.38
76460;BME280;65299;46.084;18.762;2023-12-20T06:28:48;100432.81;;;0.13;88.13
76460;BME280;65299;46.084;18.762;2023-12-20T06:31:48;100429.66;;;0.24;88.21
76460;BME280;65299;46.084;18.762;2023-12-20T06:34:49;100431.25;;;0.18;88.08
76460;BME280;65299;46.084;18.762;2023-12-20T06:37:49;100437.75;;;0.01;88.31
76460;BME280;65299;46.084;18.762;2023-12-20T06:40:49;100436.63;;;-0.18;89.02
76460;BME280;65299;46.084;18.762;2023-12-20T06:43:50;100436.94;;;0.00;88.56
76460;BME280;65299;46.084;18.762;2023-12-20T06:46:51;100436.38;;;-0.23;88.47
76460;BME280;65299;46.084;18.762;2023-12-20T06:49:52;100429.94;;;-0.27;88.83
76460;BME280;65299;46.084;18.762;2023-12-20T06:52:52;100427.97;;;-0.18;88.60
76460;BME280;65299;46.084;18.762;2023-12-20T06:55:53;100424.81;;;-0.14;88.79
76460;BME280;65299;46.084;18.762;2023-12-20T06:58:53;100425.84;;;0.20;87.24
76460;BME280;65299;46.084;18.762;2023-12-20T07:01:54;100410.81;;;-0.34;88.10
76460;BME280;65299;46.084;18.762;2023-12-20T07:04:54;100417.75;;;0.15;87.91
76460;BME280;65299;46.084;18.762;2023-12-20T07:07:55;100419.25;;;-0.04;88.09
76460;BME280;65299;46.084;18.762;2023-12-20T07:10:55;100418.00;;;-0.15;88.58
76460;BME280;65299;46.084;18.762;2023-12-20T07:13:55;100412.88;;;0.39;86.59
76460;BME280;65299;46.084;18.762;2023-12-20T07:16:56;100413.59;;;0.27;87.51
76460;BME280;65299;46.084;18.762;2023-12-20T07:19:57;100412.00;;;0.66;87.34
76460;BME280;65299;46.084;18.762;2023-12-20T07:22:57;100416.94;;;0.08;86.49
76460;BME280;65299;46.084;18.762;2023-12-20T07:25:58;100408.75;;;0.17;87.22
76460;BME280;65299;46.084;18.762;2023-12-20T07:28:58;100414.63;;;0.26;86.94
76460;BME280;65299;46.084;18.762;2023-12-20T07:31:59;100412.75;;;0.54;86.26
76460;BME280;65299;46.084;18.762;2023-12-20T07:34:59;100407.31;;;0.49;86.86
76460;BME280;65299;46.084;18.762;2023-12-20T07:38:00;100414.59;;;0.66;85.65
76460;BME280;65299;46.084;18.762;2023-12-20T07:41:00;100418.78;;;0.14;87.04
76460;BME280;65299;46.084;18.762;2023-12-20T07:44:01;100409.38;;;0.19;86.92
76460;BME280;65299;46.084;18.762;2023-12-20T07:47:02;100404.78;;;0.28;86.25
76460;BME280;65299;46.084;18.762;2023-12-20T07:50:03;100408.25;;;0.41;86.03
76460;BME280;65299;46.084;18.762;2023-12-20T07:53:04;100415.69;;;0.38;85.86
76460;BME280;65299;46.084;18.762;2023-12-20T07:56:16;100425.88;;;0.26;86.38
76460;BME280;65299;46.084;18.762;2023-12-20T07:59:17;100422.75;;;0.44;86.01
76460;BME280;65299;46.084;18.762;2023-12-20T08:02:18;100423.03;;;0.62;85.60
76460;BME280;65299;46.084;18.762;2023-12-20T08:05:19;100424.25;;;0.66;85.32
76460;BME280;65299;46.084;18.762;2023-12-20T08:08:19;100425.06;;;0.66;84.88
76460;BME280;65299;46.084;18.762;2023-12-20T08:11:19;100424.84;;;0.68;85.66
76460;BME280;65299;46.084;18.762;2023-12-20T08:14:20;100433.50;;;0.68;85.54
76460;BME280;65299;46.084;18.762;2023-12-20T08:17:21;100431.41;;;0.17;86.63
76460;BME280;65299;46.084;18.762;2023-12-20T08:20:23;100429.44;;;0.53;86.73
76460;BME280;65299;46.084;18.762;2023-12-20T08:23:23;100422.91;;;0.36;86.69
76460;BME280;65299;46.084;18.762;2023-12-20T08:26:24;100431.09;;;0.33;87.76
76460;BME280;65299;46.084;18.762;2023-12-20T08:29:24;100416.53;;;0.51;87.27
76460;BME280;65299;46.084;18.762;2023-12-20T08:32:31;100427.34;;;0.89;86.26
76460;BME280;65299;46.084;18.762;2023-12-20T08:35:32;100420.94;;;0.98;85.79
76460;BME280;65299;46.084;18.762;2023-12-20T08:38:32;100419.06;;;0.85;85.33
76460;BME280;65299;46.084;18.762;2023-12-20T08:41:35;100417.19;;;0.60;85.70
76460;BME280;65299;46.084;18.762;2023-12-20T08:44:43;100417.38;;;0.58;85.66
76460;BME280;65299;46.084;18.762;2023-12-20T08:47:48;100418.41;;;0.64;86.64
76460;BME280;65299;46.084;18.762;2023-12-20T08:50:49;100421.81;;;0.58;86.64
76460;BME280;65299;46.084;18.762;2023-12-20T08:53:52;100423.47;;;0.72;86.70
76460;BME280;65299;46.084;18.762;2023-12-20T08:56:52;100416.66;;;0.84;86.69
76460;BME280;65299;46.084;18.762;2023-12-20T08:59:53;100412.53;;;1.09;85.02
76460;BME280;65299;46.084;18.762;2023-12-20T09:02:54;100417.47;;;0.84;84.90
76460;BME280;65299;46.084;18.762;2023-12-20T09:05:55;100411.13;;;1.26;84.53
76460;BME280;65299;46.084;18.762;2023-12-20T09:08:55;100405.06;;;1.06;85.04
76460;BME280;65299;46.084;18.762;2023-12-20T09:11:56;100399.81;;;0.93;84.51
76460;BME280;65299;46.084;18.762;2023-12-20T09:14:56;100403.69;;;1.04;85.45
76460;BME280;65299;46.084;18.762;2023-12-20T09:17:57;100402.69;;;1.18;84.43
76460;BME280;65299;46.084;18.762;2023-12-20T09:20:57;100405.72;;;1.47;83.18
76460;BME280;65299;46.084;18.762;2023-12-20T09:23:58;100399.09;;;1.32;83.66
76460;BME280;65299;46.084;18.762;2023-12-20T09:26:59;100400.06;;;1.24;84.48
76460;BME280;65299;46.084;18.762;2023-12-20T09:29:59;100394.44;;;1.47;83.12
76460;BME280;65299;46.084;18.762;2023-12-20T09:33:00;100393.06;;;1.71;82.90
76460;BME280;65299;46.084;18.762;2023-12-20T09:36:00;100392.03;;;1.72;82.07
76460;BME280;65299;46.084;18.762;2023-12-20T09:39:01;100398.09;;;1.52;82.36
76460;BME280;65299;46.084;18.762;2023-12-20T09:42:03;100399.69;;;1.27;84.01
76460;BME280;65299;46.084;18.762;2023-12-20T09:45:08;100394.25;;;1.55;83.48
76460;BME280;65299;46.084;18.762;2023-12-20T09:48:10;100389.00;;;1.29;83.80
76460;BME280;65299;46.084;18.762;2023-12-20T09:51:11;100391.84;;;1.40;83.41
76460;BME280;65299;46.084;18.762;2023-12-20T09:54:17;100389.41;;;1.65;83.00
76460;BME280;65299;46.084;18.762;2023-12-20T09:57:17;100380.75;;;1.71;82.79
76460;BME280;65299;46.084;18.762;2023-12-20T10:00:18;100384.22;;;1.58;83.74
76460;BME280;65299;46.084;18.762;2023-12-20T10:03:23;100373.94;;;1.63;83.11
76460;BME280;65299;46.084;18.762;2023-12-20T10:06:24;100374.34;;;1.60;83.44
76460;BME280;65299;46.084;18.762;2023-12-20T10:09:25;100366.28;;;1.16;84.88
76460;BME280;65299;46.084;18.762;2023-12-20T10:12:26;100369.53;;;1.38;85.38
76460;BME280;65299;46.084;18.762;2023-12-20T10:15:26;100377.97;;;1.40;84.19
76460;BME280;65299;46.084;18.762;2023-12-20T10:18:29;100368.13;;;1.48;84.73
76460;BME280;65299;46.084;18.762;2023-12-20T10:21:29;100366.25;;;1.95;83.38
76460;BME280;65299;46.084;18.762;2023-12-20T10:24:30;100364.88;;;1.73;83.18
76460;BME280;65299;46.084;18.762;2023-12-20T10:27:31;100366.28;;;1.49;83.98
76460;BME280;65299;46.084;18.762;2023-12-20T10:30:31;100360.47;;;1.53;85.17
76460;BME280;65299;46.084;18.762;2023-12-20T10:33:32;100365.47;;;1.61;84.48
76460;BME280;65299;46.084;18.762;2023-12-20T10:36:33;100367.09;;;1.62;84.45
76460;BME280;65299;46.084;18.762;2023-12-20T10:39:33;100364.69;;;1.54;84.96
76460;BME280;65299;46.084;18.762;2023-12-20T10:42:35;100365.69;;;1.73;84.42
76460;BME280;65299;46.084;18.762;2023-12-20T10:45:37;100366.19;;;2.14;83.42
76460;BME280;65299;46.084;18.762;2023-12-20T10:48:39;100374.00;;;2.27;83.42
76460;BME280;65299;46.084;18.762;2023-12-20T10:51:41;100379.09;;;2.09;83.77
76460;BME280;65299;46.084;18.762;2023-12-20T10:54:42;100371.91;;;2.49;82.81
76460;BME280;65299;46.084;18.762;2023-12-20T10:57:44;100363.06;;;2.81;81.89
76460;BME280;65299;46.084;18.762;2023-12-20T11:00:57;100349.88;;;3.01;81.16
76460;BME280;65299;46.084;18.762;2023-12-20T11:04:10;100339.44;;;3.19;79.95
76460;BME280;65299;46.084;18.762;2023-12-20T11:07:33;100334.19;;;2.94;80.94
76460;BME280;65299;46.084;18.762;2023-12-20T11:14:08;100341.50;;;2.79;81.82
76460;BME280;65299;46.084;18.762;2023-12-20T11:17:13;100340.81;;;2.59;83.37
76460;BME280;65299;46.084;18.762;2023-12-20T11:20:18;100349.84;;;2.32;84.23
76460;BME280;65299;46.084;18.762;2023-12-20T11:23:18;100341.50;;;2.79;82.99
76460;BME280;65299;46.084;18.762;2023-12-20T11:26:26;100345.56;;;2.75;83.09
76460;BME280;65299;46.084;18.762;2023-12-20T11:29:33;100348.75;;;3.15;82.32
76460;BME280;65299;46.084;18.762;2023-12-20T11:32:34;100347.88;;;2.96;82.35
76460;BME280;65299;46.084;18.762;2023-12-20T11:35:36;100353.97;;;3.21;81.87
76460;BME280;65299;46.084;18.762;2023-12-20T11:38:57;100354.09;;;3.26;81.52
76460;BME280;65299;46.084;18.762;2023-12-20T11:42:04;100338.31;;;3.33;80.60
76460;BME280;65299;46.084;18.762;2023-12-20T11:45:10;100336.56;;;3.52;80.24
76460;BME280;65299;46.084;18.762;2023-12-20T11:48:12;100331.19;;;3.40;80.21
76460;BME280;65299;46.084;18.762;2023-12-20T11:51:13;100330.09;;;3.54;80.71
76460;BME280;65299;46.084;18.762;2023-12-20T11:54:16;100322.81;;;3.31;81.13
76460;BME280;65299;46.084;18.762;2023-12-20T11:57:16;100327.78;;;3.40;80.99
76460;BME280;65299;46.084;18.762;2023-12-20T12:00:17;100313.69;;;3.34;80.76
76460;BME280;65299;46.084;18.762;2023-12-20T12:03:18;100318.28;;;3.63;80.07
76460;BME280;65299;46.084;18.762;2023-12-20T12:06:18;100307.53;;;3.47;80.33
76460;BME280;65299;46.084;18.762;2023-12-20T12:09:19;100315.00;;;3.68;79.77
76460;BME280;65299;46.084;18.762;2023-12-20T12:12:19;100308.41;;;3.41;81.26
76460;BME280;65299;46.084;18.762;2023-12-20T12:15:20;100310.69;;;3.73;80.57
76460;BME280;65299;46.084;18.762;2023-12-20T12:18:22;100300.50;;;3.65;80.15
76460;BME280;65299;46.084;18.762;2023-12-20T12:22:14;100298.66;;;3.48;80.81
76460;BME280;65299;46.084;18.762;2023-12-20T12:25:38;100291.53;;;3.73;79.76
76460;BME280;65299;46.084;18.762;2023-12-20T12:28:50;100291.97;;;4.06;79.11
76460;BME280;65299;46.084;18.762;2023-12-20T12:31:53;100285.31;;;4.03;79.02
76460;BME280;65299;46.084;18.762;2023-12-20T12:34:55;100288.94;;;3.91;79.17
76460;BME280;65299;46.084;18.762;2023-12-20T12:37:59;100290.22;;;4.00;79.00
76460;BME280;65299;46.084;18.762;2023-12-20T12:41:00;100282.66;;;3.74;80.09
76460;BME280;65299;46.084;18.762;2023-12-20T12:44:00;100284.41;;;3.80;79.99
76460;BME280;65299;46.084;18.762;2023-12-20T12:47:02;100284.75;;;3.65;80.45
76460;BME280;65299;46.084;18.762;2023-12-20T12:50:04;100290.63;;;3.61;80.79
76460;BME280;65299;46.084;18.762;2023-12-20T12:53:04;100277.97;;;3.58;80.74
76460;BME280;65299;46.084;18.762;2023-12-20T12:56:05;100288.47;;;3.58;80.73
76460;BME280;65299;46.084;18.762;2023-12-20T12:59:06;100286.94;;;3.50;80.77
76460;BME280;65299;46.084;18.762;2023-12-20T13:02:06;100278.84;;;3.52;80.63
76460;BME280;65299;46.084;18.762;2023-12-20T13:05:08;100284.03;;;3.76;80.29
76460;BME280;65299;46.084;18.762;2023-12-20T13:08:08;100280.66;;;3.87;80.10
76460;BME280;65299;46.084;18.762;2023-12-20T13:11:09;100292.09;;;3.57;80.71
76460;BME280;65299;46.084;18.762;2023-12-20T13:14:10;100297.00;;;3.71;80.65
76460;BME280;65299;46.084;18.762;2023-12-20T13:17:15;100303.06;;;3.72;80.75
76460;BME280;65299;46.084;18.762;2023-12-20T13:20:16;100292.69;;;3.77;80.13
76460;BME280;65299;46.084;18.762;2023-12-20T13:23:17;100303.34;;;3.82;80.23
76460;BME280;65299;46.084;18.762;2023-12-20T13:26:20;100298.59;;;4.27;79.17
76460;BME280;65299;46.084;18.762;2023-12-20T13:29:21;100299.00;;;4.23;78.94
76460;BME280;65299;46.084;18.762;2023-12-20T13:32:22;100305.25;;;4.11;79.86
76460;BME280;65299;46.084;18.762;2023-12-20T13:35:22;100298.59;;;4.27;79.35
76460;BME280;65299;46.084;18.762;2023-12-20T13:38:26;100302.09;;;4.20;79.18
76460;BME280;65299;46.084;18.762;2023-12-20T13:41:27;100308.44;;;4.31;78.83
76460;BME280;65299;46.084;18.762;2023-12-20T13:44:27;100307.59;;;4.49;78.64
76460;BME280;65299;46.084;18.762;2023-12-20T13:47:28;100304.31;;;4.53;78.47
76460;BME280;65299;46.084;18.762;2023-12-20T13:50:29;100313.06;;;4.47;78.72
76460;BME280;65299;46.084;18.762;2023-12-20T13:53:29;100321.66;;;4.54;78.49
76460;BME280;65299;46.084;18.762;2023-12-20T13:56:30;100315.31;;;4.62;78.22
76460;BME280;65299;46.084;18.762;2023-12-20T13:59:30;100322.63;;;4.60;78.43
76460;BME280;65299;46.084;18.762;2023-12-20T14:02:31;100326.75;;;4.67;78.28
76460;BME280;65299;46.084;18.762;2023-12-20T14:05:34;100320.84;;;4.83;77.90
76460;BME280;65299;46.084;18.762;2023-12-20T14:08:35;100320.03;;;4.71;78.36
76460;BME280;65299;46.084;18.762;2023-12-20T14:11:36;100327.97;;;4.53;78.89
76460;BME280;65299;46.084;18.762;2023-12-20T14:14:41;100312.47;;;4.34;80.14
76460;BME280;65299;46.084;18.762;2023-12-20T14:17:41;100320.25;;;4.22;80.70
76460;BME280;65299;46.084;18.762;2023-12-20T14:20:43;100327.38;;;4.51;79.87
76460;BME280;65299;46.084;18.762;2023-12-20T14:23:51;100323.00;;;4.45;79.95
76460;BME280;65299;46.084;18.762;2023-12-20T14:26:56;100329.19;;;4.51;79.66
76460;BME280;65299;46.084;18.762;2023-12-20T14:29:58;100317.25;;;4.66;78.83
76460;BME280;65299;46.084;18.762;2023-12-20T14:32:59;100324.16;;;4.49;79.50
76460;BME280;65299;46.084;18.762;2023-12-20T14:36:00;100324.03;;;4.26;80.45
76460;BME280;65299;46.084;18.762;2023-12-20T14:39:00;100324.63;;;4.28;80.17
76460;BME280;65299;46.084;18.762;2023-12-20T14:42:03;100311.28;;;4.30;80.75
76460;BME280;65299;46.084;18.762;2023-12-20T14:45:04;100311.34;;;4.41;79.93
76460;BME280;65299;46.084;18.762;2023-12-20T14:48:05;100325.13;;;4.37;80.22
76460;BME280;65299;46.084;18.762;2023-12-20T14:51:05;100324.03;;;4.26;80.42
76460;BME280;65299;46.084;18.762;2023-12-20T14:54:07;100317.56;;;4.10;80.76
76460;BME280;65299;46.084;18.762;2023-12-20T14:57:10;100331.28;;;4.31;80.03
76460;BME280;65299;46.084;18.762;2023-12-20T15:00:11;100324.28;;;4.06;80.59
76460;BME280;65299;46.084;18.762;2023-12-20T15:03:16;100328.38;;;4.02;80.81
76460;BME280;65299;46.084;18.762;2023-12-20T15:06:18;100326.25;;;4.11;80.39
76460;BME280;65299;46.084;18.762;2023-12-20T15:09:21;100332.00;;;4.01;80.55
76460;BME280;65299;46.084;18.762;2023-12-20T15:12:21;100334.84;;;4.18;80.42
76460;BME280;65299;46.084;18.762;2023-12-20T15:15:23;100336.94;;;4.28;79.68
76460;BME280;65299;46.084;18.762;2023-12-20T15:18:24;100339.16;;;4.12;79.78
76460;BME280;65299;46.084;18.762;2023-12-20T15:21:24;100340.03;;;4.06;79.65
76460;BME280;65299;46.084;18.762;2023-12-20T15:24:31;100346.16;;;4.00;79.73
76460;BME280;65299;46.084;18.762;2023-12-20T15:27:38;100346.69;;;3.91;79.98
76460;BME280;65299;46.084;18.762;2023-12-20T15:30:38;100355.38;;;3.67;80.45
76460;BME280;65299;46.084;18.762;2023-12-20T15:33:39;100356.84;;;3.81;79.89
76460;BME280;65299;46.084;18.762;2023-12-20T15:36:41;100364.91;;;3.86;79.81
76460;BME280;65299;46.084;18.762;2023-12-20T15:39:42;100360.03;;;3.65;79.77
76460;BME280;65299;46.084;18.762;2023-12-20T15:42:43;100362.03;;;3.45;80.47
76460;BME280;65299;46.084;18.762;2023-12-20T15:45:43;100366.28;;;3.46;79.84
76460;BME280;65299;46.084;18.762;2023-12-20T15:48:46;100369.31;;;3.43;80.43
76460;BME280;65299;46.084;18.762;2023-12-20T15:51:46;100370.25;;;3.73;79.56
76460;BME280;65299;46.084;18.762;2023-12-20T15:54:47;100371.25;;;3.54;80.10
76460;BME280;65299;46.084;18.762;2023-12-20T15:57:48;100373.34;;;3.45;79.93